TLSO2: Arkansas River, Tulsa, OK

Data processed at Fri Dec 08 2017 23:47


All information presented herein is the property of the government of the United States of America and may be revised or deleted at any time without prior notice.
Dissemination of this information without the expressed written consent of the Public Affairs Office, Tulsa District U.S. Army Corps of Engineers is strictly prohibited.
These data are gathered electronically and, as presented, have not undergone any form of quality control. These data are not guaranteed to be valid or correct.
Go to home page.
Go to station list.

Upstream stations:

Downstream station:
Previous Day
Next Day
Current Day
    
SHEF ID:       TLSO2     Arkansas River at Tulsa, OK
STATION TYPE:  

               PRECIP     STAGE  STAGE(2)  RIV-FLOW  WTR-TEMP   DIS-OXY  BAT-LOAD
                   in        ft        ft       cfs         F      mg/l      volt
              Ccp-Rev   Ccp-Rev   Ccp-Rev   Ccp-Rev   Ccp-Rev   Ccp-Rev   Ccp-Rev
(US/Central)
12/06 00:00      0.00      2.82      ----      3802     49.39     10.22     12.57
12/06 01:00      0.00      3.20      ----      5392     49.66     10.28     12.57
12/06 02:00      0.00      3.20      ----      5392     50.40      9.90     12.57
12/06 03:00      0.00      3.01      ----      4592     50.18      9.85     12.49
12/06 04:00      0.00      2.74      ----      3497     49.86      9.93     12.49
12/06 05:00      0.00      2.44      ----      2496     49.78      9.91     12.41
12/06 06:00      0.00      2.18      ----      1798     48.99     10.02     12.41
12/06 07:00      0.00      1.96      ----      1319     48.58     10.11     12.41
12/06 08:00      0.00      1.78      ----       996     48.04     10.19     12.49
12/06 09:00      0.00      1.66      ----       812     47.77     10.32     13.37
12/06 10:00      0.00      1.56      ----       677     47.98     10.47     13.92
12/06 11:00      0.00      1.47      ----       569     48.45     10.56     14.48
12/06 12:00      0.00      1.52      ----       628     48.94     10.61     13.68
12/06 13:00      0.00      2.66      ----      3208     49.59     10.65     13.68
12/06 14:00      0.00      3.47      ----      6536     50.95     10.35     12.97
12/06 15:00      0.00      3.61      ----      7128     52.70      9.76     12.89
12/06 16:00      0.00      3.45      ----      6452     52.99      9.84     13.05
12/06 17:00      0.00      3.13      ----      5098     53.02      9.84     12.81
12/06 18:00      0.00      2.80      ----      3724     52.84      9.86     12.73
12/06 19:00      0.00      2.49      ----      2648     52.52      9.96     12.65
12/06 20:00      0.00      2.22      ----      1896     52.11     10.02     12.65
12/06 21:00      0.00      1.98      ----      1358     51.78     10.07     12.65
12/06 22:00      0.00      1.81      ----      1045     51.39     10.13     12.65
12/06 23:00      0.00      1.99      ----      1378     50.94     10.17     12.57